createdAt,value
2019-01-12T00:02:29.347Z,87.28
2019-01-12T00:05:33.782Z,87.11
2019-01-12T00:08:38.216Z,86.98
2019-01-12T00:11:42.643Z,86.67
2019-01-12T00:14:47.088Z,87.00
2019-01-12T00:17:51.527Z,86.69
2019-01-12T00:20:56.320Z,86.99
2019-01-12T00:24:00.757Z,87.06
2019-01-12T00:27:05.480Z,87.48
2019-01-12T00:30:13.326Z,87.45
2019-01-12T00:33:17.752Z,87.62
2019-01-12T00:36:22.529Z,87.57
2019-01-12T00:39:27.265Z,87.41
2019-01-12T00:42:31.694Z,87.38
2019-01-12T00:45:36.133Z,87.27
2019-01-12T00:48:40.581Z,87.74
2019-01-12T00:51:45.015Z,87.76
2019-01-12T00:54:49.789Z,87.56
2019-01-12T00:57:54.215Z,87.16
2019-01-12T01:00:58.654Z,87.16
2019-01-12T01:04:03.471Z,87.38
2019-01-12T01:07:07.908Z,87.11
2019-01-12T01:10:21.026Z,86.78
2019-01-12T01:13:25.429Z,86.52
2019-01-12T01:16:29.875Z,86.48
2019-01-12T01:19:34.310Z,86.43
2019-01-12T01:22:39.024Z,86.68
2019-01-12T01:25:43.755Z,86.83
2019-01-12T01:28:48.179Z,87.17
2019-01-12T01:31:52.621Z,87.35
2019-01-12T01:34:57.059Z,87.04
2019-01-12T01:38:01.761Z,86.81
2019-01-12T01:41:06.203Z,86.44
2019-01-12T01:44:10.629Z,86.62
2019-01-12T01:47:15.067Z,87.12
2019-01-12T01:50:19.502Z,87.05
2019-01-12T01:53:23.938Z,87.19
2019-01-12T01:56:28.381Z,87.17
2019-01-12T01:59:32.810Z,86.97
2019-01-12T02:02:37.249Z,86.99
2019-01-12T02:05:41.680Z,87.06
2019-01-12T02:08:46.602Z,86.76
2019-01-12T02:11:51.335Z,87.21
2019-01-12T02:14:55.766Z,87.14
2019-01-12T02:18:00.198Z,86.48
2019-01-12T02:21:04.705Z,86.86
2019-01-12T02:24:09.211Z,87.11
2019-01-12T02:27:13.642Z,87.58
2019-01-12T02:30:21.760Z,87.29
2019-01-12T02:33:26.439Z,87.35
2019-01-12T02:36:30.871Z,87.09
2019-01-12T02:39:35.319Z,86.65
2019-01-12T02:42:39.734Z,87.18
2019-01-12T02:45:44.163Z,87.00
2019-01-12T02:48:49.042Z,86.72
2019-01-12T02:51:53.476Z,86.46
2019-01-12T02:54:57.909Z,86.57
2019-01-12T02:58:02.343Z,86.78
2019-01-12T03:01:06.776Z,86.47
2019-01-12T03:04:11.212Z,86.23
2019-01-12T03:07:16.082Z,86.43
2019-01-12T03:10:20.581Z,86.63
2019-01-12T03:13:25.338Z,86.72
2019-01-12T03:16:30.074Z,86.90
2019-01-12T03:19:34.500Z,86.73
2019-01-12T03:22:38.936Z,86.14
2019-01-12T03:25:44.060Z,85.72
2019-01-12T03:28:48.559Z,86.29
2019-01-12T03:31:53.325Z,86.01
2019-01-12T03:34:58.047Z,86.58
2019-01-12T03:38:02.484Z,86.94
2019-01-12T03:41:07.303Z,86.22
2019-01-12T03:44:11.742Z,85.94
2019-01-12T03:47:16.178Z,86.76
2019-01-12T03:50:20.675Z,86.69
2019-01-12T03:53:25.131Z,87.10
2019-01-12T03:56:29.932Z,86.86
2019-01-12T03:59:34.669Z,86.87
2019-01-12T04:02:39.390Z,86.02
2019-01-12T04:05:43.830Z,86.20
2019-01-12T04:08:48.643Z,85.89
2019-01-12T04:11:53.787Z,85.96
2019-01-12T04:14:58.272Z,86.01
2019-01-12T04:18:03.486Z,85.40
2019-01-12T04:21:07.894Z,86.12
2019-01-12T04:24:12.327Z,86.29
2019-01-12T04:27:17.042Z,86.46
2019-01-12T04:30:21.481Z,86.34
2019-01-12T04:33:26.191Z,86.77
2019-01-12T04:36:30.922Z,86.98
2019-01-12T04:39:35.649Z,86.74
2019-01-12T04:42:40.087Z,86.41
2019-01-12T04:45:44.514Z,86.74
2019-01-12T04:48:49.538Z,87.12
2019-01-12T04:51:53.983Z,87.34
2019-01-12T04:54:58.418Z,86.82
2019-01-12T04:58:02.858Z,87.18
2019-01-12T05:01:07.294Z,87.42
2019-01-12T05:04:12.164Z,87.16
2019-01-12T05:07:16.654Z,86.72
2019-01-12T05:10:21.418Z,87.06
2019-01-12T05:13:26.257Z,87.43
2019-01-12T05:16:30.688Z,87.04
2019-01-12T05:19:35.136Z,87.25
2019-01-12T05:22:39.563Z,87.46
2019-01-12T05:25:48.869Z,86.81
2019-01-12T05:28:50.517Z,86.78
2019-01-12T05:31:54.941Z,87.27
2019-01-12T05:34:59.381Z,86.45
2019-01-12T05:38:03.839Z,86.75
2019-01-12T05:41:08.269Z,86.74
2019-01-12T05:44:12.708Z,85.96
2019-01-12T05:47:17.369Z,86.31
2019-01-12T05:50:21.817Z,87.03
2019-01-12T05:53:26.524Z,86.73
2019-01-12T05:56:31.192Z,86.58
2019-01-12T05:59:35.631Z,86.60
2019-01-12T06:02:40.054Z,86.62
2019-01-12T06:05:44.931Z,86.42
2019-01-12T06:08:49.388Z,86.90
2019-01-12T06:11:54.081Z,87.02
2019-01-12T06:14:58.816Z,86.93
2019-01-12T06:18:03.242Z,86.48
2019-01-12T06:21:07.690Z,85.98
2019-01-12T06:24:12.127Z,85.91
2019-01-12T06:27:16.558Z,86.13
2019-01-12T06:30:21.326Z,86.49
2019-01-12T06:33:26.080Z,85.80
2019-01-12T06:36:30.520Z,86.11
2019-01-12T06:39:34.960Z,85.36
2019-01-12T06:42:39.388Z,85.29
2019-01-12T06:45:44.175Z,85.01
2019-01-12T06:48:48.928Z,85.67
2019-01-12T06:51:53.364Z,86.34
2019-01-12T06:54:58.173Z,86.22
2019-01-12T06:58:02.600Z,86.55
2019-01-12T07:01:07.320Z,86.83
2019-01-12T07:04:11.754Z,86.98
2019-01-12T07:07:16.480Z,86.67
2019-01-12T07:10:20.945Z,86.28
2019-01-12T07:13:25.626Z,86.02
2019-01-12T07:16:30.360Z,86.16
2019-01-12T07:19:38.134Z,86.12
2019-01-12T07:22:42.542Z,86.21
2019-01-12T07:25:46.977Z,86.18
2019-01-12T07:28:51.418Z,86.22
2019-01-12T07:31:56.164Z,86.29
2019-01-12T07:35:00.911Z,85.95
2019-01-12T07:38:05.333Z,86.01
2019-01-12T07:41:09.844Z,86.00
2019-01-12T07:44:14.625Z,85.74
2019-01-12T07:47:20.259Z,85.66
2019-01-12T07:50:24.975Z,85.84
2019-01-12T07:56:40.158Z,85.80
2019-01-12T07:59:44.593Z,85.86
2019-01-12T08:02:49.095Z,85.98
2019-01-12T08:05:53.528Z,85.61
2019-01-12T08:08:58.259Z,85.27
2019-01-12T08:12:02.716Z,84.04
2019-01-12T08:15:07.589Z,83.98
2019-01-12T08:18:12.097Z,84.15
2019-01-12T08:21:16.870Z,84.09
2019-01-12T08:24:21.606Z,83.79
2019-01-12T08:27:26.437Z,83.68
2019-01-12T08:30:30.871Z,84.57
2019-01-12T08:33:35.348Z,84.44
2019-01-12T08:36:39.787Z,84.29
2019-01-12T08:39:44.548Z,84.02
2019-01-12T08:42:48.998Z,84.00
2019-01-12T08:45:53.708Z,83.63
2019-01-12T08:48:58.443Z,82.79
2019-01-12T08:52:03.261Z,83.35
2019-01-12T08:55:10.489Z,82.71
2019-01-12T08:58:14.927Z,82.60
2019-01-12T09:01:19.363Z,83.51
2019-01-12T09:04:24.141Z,84.12
2019-01-12T09:07:28.570Z,83.83
2019-01-12T09:10:33.001Z,84.20
2019-01-12T09:13:37.441Z,82.95
2019-01-12T09:16:42.232Z,83.79
2019-01-12T09:19:46.962Z,83.87
2019-01-12T09:22:51.408Z,83.30
2019-01-12T09:25:55.907Z,83.16
2019-01-12T09:29:00.403Z,82.94
2019-01-12T09:32:05.404Z,82.23
2019-01-12T09:35:09.893Z,82.47
2019-01-12T09:38:14.732Z,82.49
2019-01-12T09:41:19.241Z,82.77
2019-01-12T09:44:23.988Z,82.87
2019-01-12T09:47:28.824Z,83.26
2019-01-12T09:50:33.556Z,82.93
2019-01-12T09:53:38.279Z,82.68
2019-01-12T09:56:42.803Z,82.52
2019-01-12T09:59:47.227Z,82.88
2019-01-12T10:02:51.967Z,82.92
2019-01-12T10:05:56.414Z,82.97
2019-01-12T10:09:01.227Z,82.88
2019-01-12T10:12:05.739Z,82.21
2019-01-12T10:15:11.373Z,81.56
2019-01-12T10:18:16.130Z,81.54
2019-01-12T10:21:20.559Z,81.24
2019-01-12T10:24:25.063Z,81.40
2019-01-12T10:27:29.811Z,81.73
2019-01-12T10:30:34.542Z,81.78
2019-01-12T10:33:38.987Z,82.01
2019-01-12T10:36:43.424Z,82.02
2019-01-12T10:39:47.853Z,82.99
2019-01-12T10:42:52.646Z,82.15
2019-01-12T10:45:57.375Z,82.10
2019-01-12T10:49:01.819Z,82.18
2019-01-12T10:52:06.857Z,81.47
2019-01-12T10:55:11.347Z,80.65
2019-01-12T10:58:15.792Z,80.78
2019-01-12T11:01:20.515Z,80.60
2019-01-12T11:04:24.966Z,80.09
2019-01-12T11:07:29.599Z,79.65
2019-01-12T11:10:34.098Z,80.11
2019-01-12T11:13:38.854Z,78.61
2019-01-12T11:16:43.285Z,78.69
2019-01-12T11:19:47.737Z,78.87
2019-01-12T11:22:52.511Z,78.68
2019-01-12T11:25:57.354Z,78.76
2019-01-12T11:29:01.792Z,78.39
2019-01-12T11:32:06.495Z,78.98
2019-01-12T11:35:12.003Z,79.21
2019-01-12T11:38:16.447Z,78.85
2019-01-12T11:41:21.200Z,79.35
2019-01-12T11:44:25.653Z,78.73
2019-01-12T11:47:30.126Z,78.72
2019-01-12T11:50:34.879Z,78.79
2019-01-12T11:53:39.312Z,78.70
2019-01-12T11:56:43.762Z,78.91
2019-01-12T11:59:48.200Z,79.55
2019-01-12T12:02:53.002Z,80.60
2019-01-12T12:05:57.433Z,79.53
2019-01-12T12:09:02.245Z,79.10
2019-01-12T12:12:08.000Z,79.48
2019-01-12T12:15:18.741Z,78.95
2019-01-12T12:18:23.524Z,79.38
2019-01-12T12:21:27.972Z,79.23
2019-01-12T12:24:32.877Z,79.23
2019-01-12T12:27:38.099Z,79.03
2019-01-12T12:30:42.546Z,78.57
2019-01-12T12:33:46.990Z,78.76
2019-01-12T12:36:51.433Z,78.83
2019-01-12T12:39:55.937Z,78.74
2019-01-12T12:43:00.745Z,79.14
2019-01-12T12:46:05.241Z,78.08
2019-01-12T12:49:09.988Z,78.48
2019-01-12T12:52:14.715Z,78.73
2019-01-12T12:55:19.697Z,78.67
2019-01-12T12:58:24.134Z,78.98
2019-01-12T13:01:28.582Z,78.59
2019-01-12T13:04:33.028Z,79.06
2019-01-12T13:07:37.883Z,78.91
2019-01-12T13:10:42.329Z,78.18
2019-01-12T13:13:47.117Z,78.87
2019-01-12T13:16:52.750Z,79.63
2019-01-12T13:19:57.210Z,80.62
2019-01-12T13:23:01.634Z,81.58
2019-01-12T13:26:06.104Z,81.07
2019-01-12T13:29:10.652Z,80.94
2019-01-12T13:32:15.089Z,81.00
2019-01-12T13:35:19.631Z,81.25
2019-01-12T13:38:24.377Z,80.99
2019-01-12T13:41:28.812Z,81.26
2019-01-12T13:44:33.275Z,81.53
2019-01-12T13:47:39.390Z,81.86
2019-01-12T13:50:43.825Z,82.61
2019-01-12T13:53:48.617Z,82.55
2019-01-12T13:56:53.482Z,82.46
2019-01-12T13:59:58.175Z,81.74
2019-01-12T14:03:03.027Z,81.69
2019-01-12T14:06:07.745Z,80.99
2019-01-12T14:09:12.472Z,81.07
2019-01-12T14:12:16.906Z,80.74
2019-01-12T14:15:21.804Z,80.30
2019-01-12T14:18:26.560Z,79.58
2019-01-12T14:21:31.012Z,79.15
2019-01-12T14:24:35.440Z,78.87
2019-01-12T14:27:40.344Z,78.62
2019-01-12T14:30:44.781Z,78.40
2019-01-12T14:33:49.204Z,78.28
2019-01-12T14:36:54.659Z,78.73
2019-01-12T14:39:59.090Z,78.04
2019-01-12T14:43:03.538Z,77.37
2019-01-12T14:46:07.975Z,78.24
2019-01-12T14:49:12.415Z,78.53
2019-01-12T14:52:16.853Z,77.73
2019-01-12T14:55:23.202Z,77.46
2019-01-12T14:58:27.643Z,77.07
2019-01-12T15:01:32.119Z,77.62
2019-01-12T15:04:36.823Z,77.73
2019-01-12T15:07:41.272Z,77.67
2019-01-12T15:10:45.966Z,77.58
2019-01-12T15:13:50.397Z,77.76
2019-01-12T15:16:54.841Z,78.18
2019-01-12T15:19:59.269Z,78.58
2019-01-12T15:23:03.694Z,78.12
2019-01-12T15:26:08.383Z,77.94
2019-01-12T15:29:12.812Z,77.56
2019-01-12T15:32:17.539Z,77.94
2019-01-12T15:35:24.092Z,77.60
2019-01-12T15:38:29.913Z,77.88
2019-01-12T15:41:34.701Z,77.95
2019-01-12T15:44:39.430Z,78.09
2019-01-12T15:47:43.862Z,78.10
2019-01-12T15:50:48.292Z,78.21
2019-01-12T15:53:52.717Z,77.49
2019-01-12T15:56:57.431Z,77.28
2019-01-12T16:00:02.270Z,76.57
2019-01-12T16:03:06.702Z,76.86
2019-01-12T16:06:11.135Z,76.52
2019-01-12T16:09:15.843Z,75.87
2019-01-12T16:12:20.282Z,75.89
2019-01-12T16:15:25.947Z,77.03
2019-01-12T16:18:30.383Z,77.57
2019-01-12T16:21:35.082Z,76.54
2019-01-12T16:24:39.828Z,75.77
2019-01-12T16:27:44.254Z,75.58
2019-01-12T16:30:48.924Z,76.03
2019-01-12T16:33:53.379Z,75.77
2019-01-12T16:36:57.798Z,75.58
2019-01-12T16:40:02.550Z,74.80
2019-01-12T16:43:06.990Z,74.89
2019-01-12T16:46:11.416Z,74.78
2019-01-12T16:49:15.853Z,74.79
2019-01-12T16:52:20.539Z,74.86
2019-01-12T16:55:25.266Z,75.34
2019-01-12T16:58:30.691Z,75.56
2019-01-12T17:01:35.426Z,75.56
2019-01-12T17:04:39.844Z,75.50
2019-01-12T17:07:44.292Z,75.67
2019-01-12T17:10:48.711Z,76.04
2019-01-12T17:13:53.445Z,77.16
2019-01-12T17:16:58.182Z,77.26
2019-01-12T17:20:02.920Z,77.79
2019-01-12T17:23:07.362Z,77.68
2019-01-12T17:26:12.063Z,77.86
2019-01-12T17:29:17.968Z,78.18
2019-01-12T17:32:22.619Z,78.73
2019-01-12T17:35:27.425Z,78.82
2019-01-12T17:38:31.823Z,79.32
2019-01-12T17:41:36.245Z,79.37
2019-01-12T17:44:40.959Z,79.84
2019-01-12T17:47:45.791Z,80.25
2019-01-12T17:50:50.532Z,80.00
2019-01-12T17:53:55.259Z,80.29
2019-01-12T17:56:59.989Z,80.63
2019-01-12T18:00:08.625Z,81.02
2019-01-12T18:03:13.850Z,80.68
2019-01-12T18:06:18.288Z,80.58
2019-01-12T18:09:22.773Z,80.73
2019-01-12T18:12:27.529Z,81.03
2019-01-12T18:15:32.263Z,81.38
2019-01-12T18:18:36.992Z,81.71
2019-01-12T18:21:41.468Z,81.44
2019-01-12T18:24:45.909Z,81.35
2019-01-12T18:27:50.671Z,81.11
2019-01-12T18:30:55.108Z,81.25
2019-01-12T18:33:59.824Z,82.11
2019-01-12T18:37:04.554Z,82.51
2019-01-12T18:40:13.497Z,82.96
2019-01-12T18:43:18.320Z,82.61
2019-01-12T18:46:22.744Z,82.73
2019-01-12T18:49:27.471Z,83.23
2019-01-12T18:52:31.895Z,83.07
2019-01-12T18:55:36.736Z,82.98
2019-01-12T18:58:41.456Z,83.04
2019-01-12T19:01:46.193Z,83.44
2019-01-12T19:04:50.631Z,83.18
2019-01-12T19:07:55.139Z,82.86
2019-01-12T19:10:59.568Z,83.46
2019-01-12T19:14:04.071Z,83.06
2019-01-12T19:17:08.818Z,83.10
2019-01-12T19:20:13.495Z,83.36
2019-01-12T19:23:18.290Z,83.07
2019-01-12T19:26:22.723Z,83.27
2019-01-12T19:29:27.152Z,82.46
2019-01-12T19:32:31.866Z,82.40
2019-01-12T19:35:36.301Z,83.16
2019-01-12T19:38:41.013Z,83.24
2019-01-12T19:41:45.446Z,83.18
2019-01-12T19:44:50.168Z,83.61
2019-01-12T19:47:54.596Z,83.80
2019-01-12T19:50:59.032Z,83.76
2019-01-12T19:54:03.751Z,83.24
2019-01-12T19:57:08.477Z,82.51
2019-01-12T20:00:22.938Z,82.55
2019-01-12T20:03:27.377Z,82.26
2019-01-12T20:06:31.817Z,82.63
2019-01-12T20:09:36.259Z,82.78
2019-01-12T20:12:41.036Z,83.30
2019-01-12T20:15:45.768Z,83.35
2019-01-12T20:18:50.207Z,83.25
2019-01-12T20:21:56.348Z,83.85
2019-01-12T20:25:00.803Z,82.94
2019-01-12T20:28:05.300Z,82.90
2019-01-12T20:31:37.144Z,83.49
2019-01-12T20:34:42.275Z,83.65
2019-01-12T20:38:03.954Z,82.79
2019-01-12T20:41:27.436Z,83.03
2019-01-12T20:45:26.689Z,83.65
2019-01-12T20:48:53.945Z,83.94
2019-01-12T20:52:35.143Z,83.49
2019-01-12T20:56:11.542Z,83.60
2019-01-12T20:59:38.381Z,83.59
2019-01-12T21:03:08.011Z,83.40
2019-01-12T21:06:34.375Z,83.51
2019-01-12T21:09:53.302Z,83.75
2019-01-12T21:13:40.913Z,83.62
2019-01-12T21:16:49.513Z,83.92
2019-01-12T21:19:54.459Z,83.63
2019-01-12T21:23:01.034Z,83.38
2019-01-12T21:26:05.821Z,83.65
2019-01-12T21:29:10.254Z,83.63
2019-01-12T21:32:14.691Z,83.52
2019-01-12T21:35:19.435Z,84.09
2019-01-12T21:38:23.862Z,83.61
2019-01-12T21:41:28.297Z,83.77
2019-01-12T21:44:33.061Z,83.73
2019-01-12T21:47:37.893Z,83.98
2019-01-12T21:50:42.791Z,84.40
2019-01-12T21:53:47.213Z,84.73
2019-01-12T21:56:52.192Z,84.82
2019-01-12T21:59:56.918Z,84.38
2019-01-12T22:03:01.348Z,83.88
2019-01-12T22:06:05.794Z,84.16
2019-01-12T22:09:12.058Z,84.26
2019-01-12T22:12:16.493Z,84.95
2019-01-12T22:15:21.291Z,84.47
2019-01-12T22:18:26.026Z,84.33
2019-01-12T22:21:30.767Z,84.91
2019-01-12T22:24:35.585Z,85.29
2019-01-12T22:27:40.018Z,85.45
2019-01-12T22:30:44.453Z,84.73
2019-01-12T22:33:49.161Z,84.63
2019-01-12T22:36:53.888Z,84.63
2019-01-12T22:39:58.624Z,83.93
2019-01-12T22:43:03.361Z,83.09
2019-01-12T22:46:08.093Z,82.94
2019-01-12T22:49:12.521Z,83.32
2019-01-12T22:52:16.964Z,83.89
2019-01-12T22:55:21.401Z,83.82
2019-01-12T22:58:25.834Z,84.11
2019-01-12T23:01:35.389Z,84.25
2019-01-12T23:04:39.894Z,84.29
2019-01-12T23:07:44.577Z,83.84
2019-01-12T23:10:49.010Z,83.62
2019-01-12T23:13:53.514Z,83.47
2019-01-12T23:16:58.258Z,83.14
2019-01-12T23:20:02.685Z,82.95
2019-01-12T23:23:07.118Z,84.06
2019-01-12T23:26:11.549Z,84.97
2019-01-12T23:29:15.980Z,84.60
2019-01-12T23:32:20.869Z,85.10
2019-01-12T23:35:25.624Z,84.72
2019-01-12T23:38:30.134Z,84.87
2019-01-12T23:41:34.873Z,84.38
2019-01-12T23:44:42.913Z,84.72
2019-01-12T23:47:50.677Z,85.48
2019-01-12T23:50:56.304Z,85.42
2019-01-12T23:54:01.503Z,85.26
2019-01-12T23:57:05.953Z,85.20
